createdAt,value
2022-08-05T00:00:46.711Z,100743.66
2022-08-05T00:03:19.817Z,100743.73
2022-08-05T00:06:05.257Z,100742.23
2022-08-05T00:08:38.263Z,100741.98
2022-08-05T00:11:20.786Z,100742.77
2022-08-05T00:13:56.863Z,100741.23
2022-08-05T00:16:35.495Z,100740.06
2022-08-05T00:19:06.137Z,100742.36
2022-08-05T00:21:35.727Z,100739.90
2022-08-05T00:24:11.245Z,100735.83
2022-08-05T00:26:46.713Z,100735.69
2022-08-05T00:29:25.305Z,100733.06
2022-08-05T00:32:12.382Z,100734.41
2022-08-05T00:35:03.326Z,100733.44
2022-08-05T00:37:52.843Z,100732.68
2022-08-05T00:40:29.246Z,100732.31
2022-08-05T00:43:02.267Z,100735.48
2022-08-05T00:45:42.913Z,100736.16
2022-08-05T00:48:17.457Z,100732.02
2022-08-05T00:50:46.736Z,100729.19
2022-08-05T00:54:01.482Z,100729.13
2022-08-05T00:56:08.022Z,100727.73
2022-08-05T00:58:42.474Z,100732.38
2022-08-05T01:01:42.033Z,100731.98
2022-08-05T01:04:13.565Z,100728.57
2022-08-05T01:06:43.796Z,100730.05
2022-08-05T01:09:19.968Z,100719.38
2022-08-05T01:11:54.135Z,100722.91
2022-08-05T01:14:28.096Z,100718.80
2022-08-05T01:17:02.397Z,100715.80
2022-08-05T01:19:56.919Z,100714.23
2022-08-05T01:22:23.950Z,100712.04
2022-08-05T01:24:57.235Z,100712.59
2022-08-05T01:27:33.075Z,100707.25
2022-08-05T01:30:05.891Z,100704.51
2022-08-05T01:32:52.509Z,100702.19
2022-08-05T01:35:51.110Z,100703.17
2022-08-05T01:38:14.626Z,100704.97
2022-08-05T01:41:01.287Z,100706.52
2022-08-05T01:43:35.736Z,100706.33
2022-08-05T01:46:07.095Z,100702.59
2022-08-05T01:48:49.351Z,100700.88
2022-08-05T01:51:19.189Z,100697.55
2022-08-05T01:53:57.643Z,100699.82
2022-08-05T01:58:14.655Z,100698.71
2022-08-05T01:59:17.613Z,100695.02
2022-08-05T02:01:46.897Z,100690.30
2022-08-05T02:04:22.524Z,100685.27
2022-08-05T02:06:57.529Z,100686.11
2022-08-05T02:09:31.827Z,100679.94
2022-08-05T02:12:06.125Z,100680.00
2022-08-05T02:14:41.931Z,100684.51
2022-08-05T02:18:28.062Z,100687.55
2022-08-05T02:20:06.266Z,100686.73
2022-08-05T02:22:35.587Z,100683.38
2022-08-05T02:25:12.608Z,100678.73
2022-08-05T02:27:59.461Z,100679.64
2022-08-05T02:30:34.438Z,100680.34
2022-08-05T02:33:08.473Z,100671.55
2022-08-05T02:35:50.947Z,100675.89
2022-08-05T02:38:35.135Z,100671.92
2022-08-05T02:41:16.918Z,100670.48
2022-08-05T02:44:02.901Z,100668.33
2022-08-05T02:46:36.576Z,100666.48
2022-08-05T02:49:25.759Z,100670.50
2022-08-05T02:52:03.725Z,100666.95
2022-08-05T02:54:37.059Z,100664.77
2022-08-05T02:58:11.016Z,100662.20
2022-08-05T03:00:00.361Z,100664.12
2022-08-05T03:02:35.227Z,100659.85
2022-08-05T03:05:04.482Z,100659.19
2022-08-05T03:08:01.244Z,100657.86
2022-08-05T03:10:29.070Z,100652.30
2022-08-05T03:15:26.243Z,100652.20
2022-08-05T03:17:57.458Z,100651.10
2022-08-05T03:20:31.533Z,100649.80
2022-08-05T03:23:11.878Z,100652.90
2022-08-05T03:26:04.308Z,100649.31
2022-08-05T03:28:31.551Z,100652.79
2022-08-05T03:31:06.208Z,100651.58
2022-08-05T03:33:50.996Z,100651.05
2022-08-05T03:36:30.255Z,100650.51
2022-08-05T03:39:00.204Z,100644.84
2022-08-05T03:41:38.816Z,100640.23
2022-08-05T03:44:19.925Z,100638.66
2022-08-05T03:46:49.502Z,100639.94
2022-08-05T03:49:18.763Z,100641.55
2022-08-05T03:52:39.018Z,100643.95
2022-08-05T03:55:49.906Z,100640.36
2022-08-05T03:57:28.999Z,100640.42
2022-08-05T04:00:15.616Z,100644.29
2022-08-05T04:02:52.196Z,100642.04
2022-08-05T04:05:28.104Z,100644.81
2022-08-05T04:08:03.521Z,100645.60
2022-08-05T04:10:38.135Z,100639.70
2022-08-05T04:13:11.362Z,100640.54
2022-08-05T04:16:03.172Z,100637.98
2022-08-05T04:18:29.918Z,100644.15
2022-08-05T04:20:59.215Z,100641.15
2022-08-05T04:24:05.676Z,100634.92
2022-08-05T04:26:17.808Z,100631.42
2022-08-05T04:28:52.357Z,100630.63
2022-08-05T04:31:21.720Z,100632.26
2022-08-05T04:34:19.009Z,100626.14
2022-08-05T04:36:45.662Z,100628.39
2022-08-05T04:39:18.995Z,100628.31
2022-08-05T04:41:48.512Z,100627.96
2022-08-05T04:44:30.133Z,100626.70
2022-08-05T04:46:59.926Z,100627.61
2022-08-05T04:50:01.402Z,100627.23
2022-08-05T04:52:38.568Z,100628.63
2022-08-05T04:55:15.129Z,100627.35
2022-08-05T04:57:48.034Z,100627.71
2022-08-05T05:00:24.201Z,100627.61
2022-08-05T05:02:53.485Z,100629.25
2022-08-05T05:05:29.380Z,100623.27
2022-08-05T05:08:01.454Z,100623.84
2022-08-05T05:10:36.391Z,100624.02
2022-08-05T05:13:07.633Z,100625.49
2022-08-05T05:15:57.268Z,100625.16
2022-08-05T05:18:33.054Z,100630.02
2022-08-05T05:21:04.027Z,100621.78
2022-08-05T05:23:39.477Z,100620.88
2022-08-05T05:26:28.665Z,100622.45
2022-08-05T05:29:14.224Z,100625.86
2022-08-05T05:31:46.688Z,100625.52
2022-08-05T05:34:26.706Z,100623.66
2022-08-05T05:36:56.608Z,100616.62
2022-08-05T05:39:34.535Z,100613.43
2022-08-05T05:42:06.565Z,100613.42
2022-08-05T05:44:43.144Z,100612.64
2022-08-05T05:47:21.977Z,100614.75
2022-08-05T05:49:56.744Z,100615.53
2022-08-05T05:52:34.687Z,100612.69
2022-08-05T05:55:13.254Z,100613.05
2022-08-05T05:57:52.788Z,100608.11
2022-08-05T06:00:27.848Z,100607.17
2022-08-05T06:03:40.008Z,100613.27
2022-08-05T06:05:56.203Z,100613.86
2022-08-05T06:08:32.341Z,100611.60
2022-08-05T06:11:05.005Z,100616.00
2022-08-05T06:13:40.782Z,100614.18
2022-08-05T06:16:29.829Z,100615.96
2022-08-05T06:19:02.188Z,100613.86
2022-08-05T06:21:37.463Z,100613.88
2022-08-05T06:24:11.434Z,100616.40
2022-08-05T06:26:52.209Z,100616.92
2022-08-05T06:29:46.670Z,100620.53
2022-08-05T06:32:26.186Z,100620.19
2022-08-05T06:34:59.272Z,100618.65
2022-08-05T06:37:39.403Z,100618.02
2022-08-05T06:40:21.013Z,100615.65
2022-08-05T06:42:52.845Z,100610.02
2022-08-05T06:46:02.983Z,100611.55
2022-08-05T06:48:53.216Z,100608.54
2022-08-05T06:51:09.450Z,100608.86
2022-08-05T06:53:41.434Z,100605.74
2022-08-05T06:56:26.043Z,100602.73
2022-08-05T06:58:59.380Z,100602.92
2022-08-05T07:01:33.098Z,100603.16
2022-08-05T07:04:03.657Z,100601.52
2022-08-05T07:06:32.893Z,100597.52
2022-08-05T07:09:04.089Z,100594.88
2022-08-05T07:11:36.849Z,100592.80
2022-08-05T07:14:29.717Z,100590.13
2022-08-05T07:18:02.209Z,100593.96
2022-08-05T07:22:44.292Z,100594.50
2022-08-05T07:25:54.085Z,100594.14
2022-08-05T07:28:08.220Z,100593.27
2022-08-05T07:30:41.084Z,100592.84
2022-08-05T07:33:16.388Z,100590.80
2022-08-05T07:36:01.877Z,100589.41
2022-08-05T07:38:43.533Z,100590.64
2022-08-05T07:42:08.400Z,100587.77
2022-08-05T07:44:03.851Z,100588.48
2022-08-05T07:46:33.953Z,100583.94
2022-08-05T07:49:05.902Z,100585.47
2022-08-05T07:51:48.505Z,100582.24
2022-08-05T07:54:30.179Z,100580.38
2022-08-05T07:57:17.748Z,100580.34
2022-08-05T07:59:50.945Z,100587.25
2022-08-05T08:02:20.210Z,100589.52
2022-08-05T08:04:56.261Z,100585.95
2022-08-05T08:07:28.467Z,100590.55
2022-08-05T08:09:58.240Z,100588.38
2022-08-05T08:12:39.445Z,100595.85
2022-08-05T08:15:16.949Z,100594.02
2022-08-05T08:17:52.406Z,100592.09
2022-08-05T08:21:00.009Z,100589.73
2022-08-05T08:24:03.642Z,100582.46
2022-08-05T08:26:04.694Z,100576.67
2022-08-05T08:28:37.122Z,100577.32
2022-08-05T08:31:23.882Z,100577.85
2022-08-05T08:33:56.395Z,100576.13
2022-08-05T08:36:38.582Z,100579.83
2022-08-05T08:39:18.155Z,100579.02
2022-08-05T08:41:52.183Z,100573.84
2022-08-05T08:45:23.521Z,100573.05
2022-08-05T08:47:47.725Z,100576.85
2022-08-05T08:50:30.397Z,100570.02
2022-08-05T08:53:00.290Z,100569.77
2022-08-05T08:56:01.825Z,100567.95
2022-08-05T08:58:20.128Z,100568.81
2022-08-05T09:01:06.946Z,100565.39
2022-08-05T09:03:44.929Z,100563.22
2022-08-05T09:06:20.012Z,100559.17
2022-08-05T09:08:50.854Z,100561.96
2022-08-05T09:11:51.091Z,100561.48
2022-08-05T09:14:56.298Z,100566.04
2022-08-05T09:16:58.853Z,100564.41
2022-08-05T09:19:36.218Z,100563.41
2022-08-05T09:22:22.109Z,100559.92
2022-08-05T09:24:58.544Z,100561.84
2022-08-05T09:28:03.916Z,100561.60
2022-08-05T09:30:16.942Z,100556.42
2022-08-05T09:32:53.499Z,100554.20
2022-08-05T09:35:27.401Z,100548.70
2022-08-05T09:38:12.072Z,100545.84
2022-08-05T09:40:52.612Z,100540.59
2022-08-05T09:43:23.405Z,100543.71
2022-08-05T09:46:06.056Z,100542.05
2022-08-05T09:48:38.780Z,100541.36
2022-08-05T09:51:15.357Z,100540.59
2022-08-05T09:53:53.903Z,100539.15
2022-08-05T09:56:24.701Z,100542.96
2022-08-05T09:58:53.961Z,100535.38
2022-08-05T10:01:32.452Z,100529.52
2022-08-05T10:04:03.736Z,100526.54
2022-08-05T10:06:33.166Z,100522.92
2022-08-05T10:09:02.575Z,100521.74
2022-08-05T10:11:35.173Z,100523.02
2022-08-05T10:14:04.961Z,100518.34
2022-08-05T10:16:52.253Z,100521.23
2022-08-05T10:19:23.579Z,100519.60
2022-08-05T10:22:15.663Z,100517.36
2022-08-05T10:24:58.963Z,100511.73
2022-08-05T10:28:13.527Z,100511.64
2022-08-05T10:31:21.066Z,100510.33
2022-08-05T10:33:08.982Z,100506.06
2022-08-05T10:35:59.789Z,100504.63
2022-08-05T10:38:29.522Z,100504.14
2022-08-05T10:41:02.750Z,100504.23
2022-08-05T10:43:35.905Z,100506.06
2022-08-05T10:46:06.816Z,100508.98
2022-08-05T10:48:52.942Z,100501.61
2022-08-05T10:51:28.994Z,100498.84
2022-08-05T10:54:01.789Z,100501.27
2022-08-05T10:56:35.491Z,100502.38
2022-08-05T10:59:12.623Z,100504.44
2022-08-05T11:02:04.941Z,100500.71
2022-08-05T11:04:36.588Z,100497.27
2022-08-05T11:07:11.808Z,100491.02
2022-08-05T11:09:46.263Z,100491.09
2022-08-05T11:12:17.082Z,100493.82
2022-08-05T11:15:11.642Z,100490.09
2022-08-05T11:17:57.130Z,100488.20
2022-08-05T11:20:27.822Z,100482.90
2022-08-05T11:23:01.965Z,100483.32
2022-08-05T11:26:05.554Z,100479.45
2022-08-05T11:28:25.143Z,100484.42
2022-08-05T11:30:58.520Z,100480.48
2022-08-05T11:33:34.483Z,100479.08
2022-08-05T11:36:13.580Z,100480.14
2022-08-05T11:38:45.789Z,100483.84
2022-08-05T11:41:58.205Z,100481.81
2022-08-05T11:44:11.393Z,100480.59
2022-08-05T11:46:58.297Z,100478.38
2022-08-05T11:49:33.999Z,100479.63
2022-08-05T11:52:11.364Z,100481.45
2022-08-05T11:54:43.443Z,100477.66
2022-08-05T11:57:24.984Z,100481.21
2022-08-05T11:59:55.500Z,100476.84
2022-08-05T12:02:30.175Z,100477.38
2022-08-05T12:05:00.624Z,100475.90
2022-08-05T12:08:10.385Z,100475.87
2022-08-05T12:10:19.499Z,100480.75
2022-08-05T12:12:59.314Z,100474.39
2022-08-05T12:15:38.578Z,100474.35
2022-08-05T12:18:10.967Z,100471.48
2022-08-05T12:20:40.684Z,100471.61
2022-08-05T12:23:10.890Z,100469.48
2022-08-05T12:25:40.185Z,100460.90
2022-08-05T12:28:09.547Z,100460.64
2022-08-05T12:30:45.765Z,100461.23
2022-08-05T12:33:27.812Z,100458.38
2022-08-05T12:36:08.165Z,100460.21
2022-08-05T12:38:39.743Z,100463.95
2022-08-05T12:41:13.101Z,100456.88
2022-08-05T12:43:43.122Z,100455.90
2022-08-05T12:46:17.682Z,100450.58
2022-08-05T12:48:50.167Z,100444.41
2022-08-05T12:52:10.451Z,100443.33
2022-08-05T12:54:14.883Z,100442.09
2022-08-05T12:56:52.652Z,100439.83
2022-08-05T12:59:27.468Z,100440.21
2022-08-05T13:02:07.375Z,100437.60
2022-08-05T13:04:41.666Z,100446.67
2022-08-05T13:07:47.446Z,100446.59
2022-08-05T13:10:10.894Z,100439.04
2022-08-05T13:12:50.784Z,100427.91
2022-08-05T13:15:41.749Z,100432.96
2022-08-05T13:18:19.473Z,100430.05
2022-08-05T13:20:50.095Z,100430.08
2022-08-05T13:23:22.722Z,100434.48
2022-08-05T13:25:58.929Z,100432.54
2022-08-05T13:28:29.479Z,100428.60
2022-08-05T13:31:03.274Z,100423.55
2022-08-05T13:34:24.007Z,100418.38
2022-08-05T13:36:31.941Z,100418.52
2022-08-05T13:39:01.837Z,100414.94
2022-08-05T13:41:38.561Z,100412.63
2022-08-05T13:44:10.131Z,100410.98
2022-08-05T13:47:09.412Z,100406.08
2022-08-05T13:49:28.962Z,100407.92
2022-08-05T13:52:04.761Z,100406.06
2022-08-05T13:54:38.694Z,100404.77
2022-08-05T13:57:09.190Z,100401.39
2022-08-05T13:59:55.547Z,100399.91
2022-08-05T14:02:29.694Z,100399.02
2022-08-05T14:05:12.060Z,100396.88
2022-08-05T14:08:00.479Z,100392.04
2022-08-05T14:10:37.478Z,100388.70
2022-08-05T14:13:08.036Z,100392.69
2022-08-05T14:16:06.891Z,100391.06
2022-08-05T14:18:26.899Z,100396.74
2022-08-05T14:20:56.277Z,100393.63
2022-08-05T14:23:28.819Z,100392.59
2022-08-05T14:26:06.459Z,100386.39
2022-08-05T14:28:35.772Z,100386.52
2022-08-05T14:32:02.725Z,100386.27
2022-08-05T14:34:12.673Z,100387.73
2022-08-05T14:36:42.891Z,100380.91
2022-08-05T14:39:23.102Z,100380.93
2022-08-05T14:42:19.422Z,100379.91
2022-08-05T14:44:42.479Z,100385.41
2022-08-05T14:47:12.325Z,100380.86
2022-08-05T14:49:59.232Z,100380.59
2022-08-05T14:52:51.700Z,100377.31
2022-08-05T14:55:25.996Z,100379.42
2022-08-05T14:58:10.924Z,100378.27
2022-08-05T15:00:58.286Z,100376.58
2022-08-05T15:03:33.573Z,100375.96
2022-08-05T15:06:15.048Z,100374.02
2022-08-05T15:08:59.439Z,100371.34
2022-08-05T15:11:52.462Z,100368.18
2022-08-05T15:14:34.595Z,100363.58
2022-08-05T15:17:09.817Z,100356.14
2022-08-05T15:19:55.756Z,100358.98
2022-08-05T15:22:27.455Z,100356.02
2022-08-05T15:24:59.525Z,100361.36
2022-08-05T15:27:36.061Z,100354.41
2022-08-05T15:30:05.584Z,100356.20
2022-08-05T15:32:34.954Z,100354.55
2022-08-05T15:35:10.666Z,100358.46
2022-08-05T15:38:08.419Z,100357.45
2022-08-05T15:41:02.071Z,100351.77
2022-08-05T15:43:21.294Z,100353.06
2022-08-05T15:46:00.733Z,100352.69
2022-08-05T15:48:31.334Z,100357.10
2022-08-05T15:51:05.759Z,100353.38
2022-08-05T15:53:50.404Z,100351.66
2022-08-05T15:56:21.052Z,100351.66
2022-08-05T15:58:50.383Z,100350.81
2022-08-05T16:01:20.040Z,100355.69
2022-08-05T16:03:50.792Z,100357.55
2022-08-05T16:06:21.019Z,100367.20
2022-08-05T16:08:55.354Z,100376.18
2022-08-05T16:11:42.339Z,100401.95
2022-08-05T16:14:17.117Z,100414.17
2022-08-05T16:16:47.577Z,100414.12
2022-08-05T16:19:25.857Z,100421.02
2022-08-05T16:22:07.205Z,100420.70
2022-08-05T16:24:51.914Z,100429.73
2022-08-05T16:27:32.146Z,100432.43
2022-08-05T16:30:26.316Z,100437.29
2022-08-05T16:32:58.132Z,100435.08
2022-08-05T16:35:28.564Z,100444.62
2022-08-05T16:38:23.897Z,100443.00
2022-08-05T16:40:59.732Z,100443.98
2022-08-05T16:43:31.753Z,100447.66
2022-08-05T16:46:06.200Z,100463.95
2022-08-05T16:48:38.300Z,100481.42
2022-08-05T16:51:10.377Z,100505.29
2022-08-05T16:54:06.329Z,100501.33
2022-08-05T16:56:30.722Z,100512.65
2022-08-05T16:59:00.841Z,100519.61
2022-08-05T17:01:53.270Z,100528.59
2022-08-05T17:04:20.720Z,100534.44
2022-08-05T17:06:54.612Z,100538.92
2022-08-05T17:09:23.884Z,100539.23
2022-08-05T17:11:59.803Z,100533.11
2022-08-05T17:14:36.942Z,100547.54
2022-08-05T17:17:14.636Z,100558.54
2022-08-05T17:19:46.389Z,100559.00
2022-08-05T17:22:24.744Z,100569.80
2022-08-05T17:24:57.433Z,100572.20
2022-08-05T17:27:33.654Z,100567.47
2022-08-05T17:30:03.912Z,100566.94
2022-08-05T17:32:33.907Z,100565.17
2022-08-05T17:35:04.982Z,100565.27
2022-08-05T17:37:41.575Z,100564.58
2022-08-05T17:40:15.865Z,100569.17
2022-08-05T17:42:51.183Z,100576.94
2022-08-05T17:45:23.116Z,100568.22
2022-08-05T17:47:55.795Z,100577.53
2022-08-05T17:50:28.587Z,100595.70
2022-08-05T17:53:00.481Z,100597.89
2022-08-05T17:55:37.588Z,100597.59
2022-08-05T17:58:09.457Z,100600.09
2022-08-05T18:00:40.874Z,100601.52
2022-08-05T18:03:27.997Z,100596.89
2022-08-05T18:06:12.006Z,100602.33
2022-08-05T18:08:45.922Z,100614.80
2022-08-05T18:11:24.533Z,100617.73
2022-08-05T18:14:03.368Z,100625.35
2022-08-05T18:16:33.416Z,100628.60
2022-08-05T18:19:02.776Z,100637.24
2022-08-05T18:22:09.061Z,100638.02
2022-08-05T18:24:21.353Z,100643.66
2022-08-05T18:26:50.649Z,100642.21
2022-08-05T18:29:40.445Z,100637.35
2022-08-05T18:32:12.965Z,100636.40
2022-08-05T18:34:45.732Z,100634.41
2022-08-05T18:37:33.310Z,100642.10
2022-08-05T18:40:34.187Z,100649.30
2022-08-05T18:42:52.748Z,100648.41
2022-08-05T18:45:22.043Z,100646.95
2022-08-05T18:47:56.751Z,100652.23
2022-08-05T18:50:46.444Z,100658.30
2022-08-05T18:53:20.467Z,100658.73
2022-08-05T18:55:52.332Z,100653.29
2022-08-05T18:58:28.537Z,100656.13
2022-08-05T19:00:58.278Z,100659.30
2022-08-05T19:03:52.954Z,100663.59
2022-08-05T19:06:21.859Z,100671.89
2022-08-05T19:09:03.477Z,100677.09
2022-08-05T19:11:37.139Z,100681.86
2022-08-05T19:14:53.502Z,100677.99
2022-08-05T19:17:13.182Z,100680.39
2022-08-05T19:19:46.554Z,100685.54
2022-08-05T19:22:17.287Z,100691.63
2022-08-05T19:25:02.550Z,100688.70
2022-08-05T19:27:32.233Z,100692.26
2022-08-05T19:30:03.335Z,100700.54
2022-08-05T19:32:33.313Z,100696.23
2022-08-05T19:35:05.935Z,100694.75
2022-08-05T19:38:04.412Z,100699.11
2022-08-05T19:40:25.485Z,100701.58
2022-08-05T19:43:04.649Z,100707.10
2022-08-05T19:45:36.737Z,100713.00
2022-08-05T19:48:06.627Z,100716.88
2022-08-05T19:50:37.111Z,100715.27
2022-08-05T19:53:09.332Z,100722.27
2022-08-05T19:56:14.842Z,100725.13
2022-08-05T19:58:30.337Z,100727.77
2022-08-05T20:00:59.859Z,100728.89
2022-08-05T20:03:40.555Z,100721.66
2022-08-05T20:06:15.472Z,100722.38
2022-08-05T20:08:48.969Z,100719.48
2022-08-05T20:11:19.474Z,100722.06
2022-08-05T20:13:54.873Z,100720.64
2022-08-05T20:16:39.069Z,100722.88
2022-08-05T20:19:08.409Z,100728.55
2022-08-05T20:21:38.453Z,100728.45
2022-08-05T20:24:07.983Z,100728.77
2022-08-05T20:26:41.243Z,100733.14
2022-08-05T20:29:27.296Z,100739.48
2022-08-05T20:31:58.362Z,100743.55
2022-08-05T20:34:29.601Z,100752.05
2022-08-05T20:36:59.029Z,100755.70
2022-08-05T20:39:36.544Z,100752.99
2022-08-05T20:42:06.448Z,100750.92
2022-08-05T20:44:41.203Z,100755.02
2022-08-05T20:47:10.753Z,100751.70
2022-08-05T20:49:40.162Z,100755.60
2022-08-05T20:52:10.738Z,100770.09
2022-08-05T20:54:43.092Z,100774.48
2022-08-05T20:57:43.599Z,100772.00
2022-08-05T21:00:35.039Z,100774.05
2022-08-05T21:03:07.227Z,100780.80
2022-08-05T21:05:48.214Z,100781.35
2022-08-05T21:08:27.938Z,100782.52
2022-08-05T21:11:12.040Z,100790.17
2022-08-05T21:13:56.071Z,100795.30
2022-08-05T21:16:29.607Z,100798.83
2022-08-05T21:19:00.842Z,100806.46
2022-08-05T21:21:38.817Z,100811.84
2022-08-05T21:24:12.842Z,100816.29
2022-08-05T21:26:46.076Z,100818.19
2022-08-05T21:29:20.311Z,100817.15
2022-08-05T21:31:55.811Z,100828.26
2022-08-05T21:34:25.014Z,100829.02
2022-08-05T21:36:54.085Z,100833.12
2022-08-05T21:39:26.707Z,100842.49
2022-08-05T21:42:01.974Z,100843.34
2022-08-05T21:44:32.049Z,100838.05
2022-08-05T21:47:01.681Z,100840.84
2022-08-05T21:49:58.622Z,100847.67
2022-08-05T21:52:27.992Z,100850.91
2022-08-05T21:55:07.023Z,100855.64
2022-08-05T21:57:42.801Z,100862.52
2022-08-05T22:00:13.121Z,100866.41
2022-08-05T22:02:43.593Z,100874.88
2022-08-05T22:05:12.873Z,100881.37
2022-08-05T22:07:58.312Z,100886.61
2022-08-05T22:10:29.654Z,100888.88
2022-08-05T22:13:09.239Z,100889.66
2022-08-05T22:16:01.098Z,100890.12
2022-08-05T22:18:38.964Z,100893.86
2022-08-05T22:21:19.326Z,100899.64
2022-08-05T22:24:08.847Z,100894.56
2022-08-05T22:27:00.687Z,100897.24
2022-08-05T22:29:36.224Z,100900.36
2022-08-05T22:32:05.428Z,100895.81
2022-08-05T22:34:39.589Z,100902.54
2022-08-05T22:37:09.977Z,100905.02
2022-08-05T22:39:40.574Z,100905.02
2022-08-05T22:42:15.439Z,100901.43
2022-08-05T22:44:56.657Z,100902.10
2022-08-05T22:47:29.934Z,100899.89
2022-08-05T22:50:19.513Z,100908.30
2022-08-05T22:52:49.439Z,100911.65
2022-08-05T22:55:21.464Z,100905.98
2022-08-05T22:57:51.061Z,100913.54
2022-08-05T23:00:20.787Z,100916.96
2022-08-05T23:02:51.255Z,100926.05
2022-08-05T23:05:22.023Z,100924.36
2022-08-05T23:07:51.798Z,100925.58
2022-08-05T23:10:23.684Z,100921.54
2022-08-05T23:12:54.933Z,100918.19
2022-08-05T23:15:27.105Z,100920.16
2022-08-05T23:18:00.923Z,100925.38
2022-08-05T23:20:32.119Z,100931.57
2022-08-05T23:23:05.664Z,100931.98
2022-08-05T23:25:54.639Z,100935.73
2022-08-05T23:28:28.804Z,100940.15
2022-08-05T23:31:07.084Z,100934.64
2022-08-05T23:34:05.175Z,100945.96
2022-08-05T23:36:40.244Z,100950.55
2022-08-05T23:39:16.581Z,100953.48
2022-08-05T23:41:53.959Z,100957.07
2022-08-05T23:44:31.114Z,100955.20
2022-08-05T23:47:02.481Z,100955.43
2022-08-05T23:49:44.201Z,100966.42
2022-08-05T23:52:31.630Z,100966.40
2022-08-05T23:55:01.181Z,100972.84
2022-08-05T23:57:30.372Z,100970.42
